createdAt,value
2023-03-31T00:00:13.485Z,26.71
2023-03-31T00:01:21.144Z,26.68
2023-03-31T00:02:26.494Z,26.68
2023-03-31T00:03:35.449Z,26.70
2023-03-31T00:04:41.661Z,26.71
2023-03-31T00:05:50.040Z,26.72
2023-03-31T00:06:57.998Z,26.76
2023-03-31T00:08:03.290Z,26.78
2023-03-31T00:09:11.760Z,26.79
2023-03-31T00:10:20.846Z,26.81
2023-03-31T00:11:28.113Z,26.80
2023-03-31T00:12:33.377Z,26.81
2023-03-31T00:13:41.010Z,26.84
2023-03-31T00:14:46.929Z,26.90
2023-03-31T00:15:54.448Z,26.93
2023-03-31T00:17:00.136Z,26.94
2023-03-31T00:18:06.981Z,26.97
2023-03-31T00:19:20.103Z,26.99
2023-03-31T00:20:26.848Z,27.04
2023-03-31T00:21:38.500Z,27.05
2023-03-31T00:22:48.060Z,27.08
2023-03-31T00:23:54.825Z,27.10
2023-03-31T00:25:02.040Z,27.13
2023-03-31T00:26:08.030Z,27.14
2023-03-31T00:27:15.026Z,27.16
2023-03-31T00:28:20.365Z,27.18
2023-03-31T00:29:26.996Z,27.20
2023-03-31T00:30:32.221Z,27.22
2023-03-31T00:31:40.416Z,27.24
2023-03-31T00:32:45.760Z,27.26
2023-03-31T00:33:52.736Z,27.27
2023-03-31T00:34:58.117Z,27.29
2023-03-31T00:36:07.941Z,27.31
2023-03-31T00:37:17.517Z,27.33
2023-03-31T00:38:23.507Z,27.34
2023-03-31T00:39:33.408Z,27.36
2023-03-31T00:40:38.771Z,27.39
2023-03-31T00:41:45.582Z,27.39
2023-03-31T00:42:50.861Z,27.41
2023-03-31T00:44:14.603Z,27.45
2023-03-31T00:45:30.531Z,27.48
2023-03-31T00:46:37.428Z,27.52
2023-03-31T00:47:44.312Z,27.53
2023-03-31T00:48:52.429Z,27.57
2023-03-31T00:50:02.695Z,27.58
2023-03-31T00:51:09.229Z,27.60
2023-03-31T00:52:21.138Z,27.61
2023-03-31T00:53:28.616Z,27.62
2023-03-31T00:54:37.227Z,27.63
2023-03-31T00:55:44.848Z,27.66
2023-03-31T00:56:54.646Z,27.68
2023-03-31T00:58:03.528Z,27.69
2023-03-31T00:59:12.698Z,27.70
2023-03-31T01:00:22.372Z,27.71
2023-03-31T01:01:29.214Z,27.72
2023-03-31T01:02:34.621Z,27.75
2023-03-31T01:03:41.662Z,27.78
2023-03-31T01:04:51.878Z,27.80
2023-03-31T01:05:58.615Z,27.83
2023-03-31T01:07:10.985Z,27.85
2023-03-31T01:08:19.321Z,27.87
2023-03-31T01:09:28.867Z,27.88
2023-03-31T01:10:40.247Z,27.90
2023-03-31T01:11:48.546Z,27.91
2023-03-31T01:12:56.086Z,27.92
2023-03-31T01:14:03.342Z,27.94
2023-03-31T01:15:09.963Z,27.96
2023-03-31T01:16:16.686Z,27.99
2023-03-31T01:17:23.719Z,28.01
2023-03-31T01:18:30.427Z,28.03
2023-03-31T01:19:47.631Z,28.04
2023-03-31T01:21:32.244Z,28.07
2023-03-31T01:23:34.871Z,28.10
2023-03-31T01:25:14.735Z,28.13
2023-03-31T01:26:59.298Z,28.17
2023-03-31T01:28:13.602Z,28.20
2023-03-31T01:29:47.595Z,28.21
2023-03-31T01:31:38.792Z,28.24
2023-03-31T01:33:05.771Z,28.29
2023-03-31T01:34:51.086Z,28.33
2023-03-31T01:36:18.779Z,28.36
2023-03-31T01:38:04.427Z,28.39
2023-03-31T01:43:23.484Z,28.54
2023-03-31T01:44:39.969Z,28.56
2023-03-31T01:47:25.416Z,28.64
2023-03-31T01:50:05.241Z,28.72
2023-03-31T01:51:18.129Z,28.76
2023-03-31T01:55:17.771Z,28.89
2023-03-31T01:57:53.715Z,28.98
2023-03-31T01:59:04.295Z,29.01
2023-03-31T02:00:14.551Z,29.05
2023-03-31T02:01:23.074Z,29.09
2023-03-31T02:02:32.284Z,29.10
2023-03-31T02:03:41.199Z,29.14
2023-03-31T02:04:52.654Z,29.17
2023-03-31T02:05:59.716Z,29.20
2023-03-31T02:07:08.914Z,29.23
2023-03-31T02:08:16.710Z,29.26
2023-03-31T02:09:26.200Z,29.28
2023-03-31T02:10:33.250Z,29.32
2023-03-31T02:11:40.476Z,29.36
2023-03-31T02:12:47.770Z,29.38
2023-03-31T02:13:57.117Z,29.44
2023-03-31T02:15:06.394Z,29.47
2023-03-31T02:16:17.809Z,29.49
2023-03-31T02:17:32.046Z,29.53
2023-03-31T02:18:40.416Z,29.59
2023-03-31T02:19:47.611Z,29.60
2023-03-31T02:20:54.507Z,29.65
2023-03-31T02:21:59.826Z,29.68
2023-03-31T02:23:07.145Z,29.71
2023-03-31T02:24:13.889Z,29.74
2023-03-31T02:25:23.866Z,29.77
2023-03-31T02:26:32.690Z,29.81
2023-03-31T02:27:43.710Z,29.84
2023-03-31T02:28:49.035Z,29.87
2023-03-31T02:29:56.180Z,29.90
2023-03-31T02:31:15.731Z,29.93
2023-03-31T02:32:25.198Z,29.98
2023-03-31T02:33:32.090Z,30.00
2023-03-31T02:34:37.375Z,30.04
2023-03-31T02:35:44.024Z,30.06
2023-03-31T02:36:50.412Z,30.09
2023-03-31T02:37:57.142Z,30.12
2023-03-31T02:39:06.372Z,30.15
2023-03-31T02:40:15.663Z,30.19
2023-03-31T02:41:21.103Z,30.21
2023-03-31T02:42:27.815Z,30.25
2023-03-31T02:43:33.191Z,30.28
2023-03-31T02:44:41.187Z,30.33
2023-03-31T02:45:48.297Z,30.38
2023-03-31T02:46:57.126Z,30.40
2023-03-31T02:48:02.523Z,30.44
2023-03-31T02:49:10.728Z,30.49
2023-03-31T02:50:16.162Z,30.52
2023-03-31T02:51:55.822Z,30.55
2023-03-31T02:53:07.301Z,30.59
2023-03-31T02:54:28.892Z,30.59
2023-03-31T02:55:47.668Z,30.61
2023-03-31T02:57:10.047Z,30.64
2023-03-31T02:58:45.209Z,30.67
2023-03-31T02:59:59.351Z,30.70
2023-03-31T03:01:27.445Z,30.72
2023-03-31T03:02:42.652Z,30.76
2023-03-31T03:03:56.889Z,30.79
2023-03-31T03:05:15.592Z,30.83
2023-03-31T03:06:34.914Z,30.88
2023-03-31T03:07:50.463Z,30.93
2023-03-31T03:09:06.748Z,30.96
2023-03-31T03:10:15.550Z,30.99
2023-03-31T03:11:25.057Z,31.04
2023-03-31T03:12:35.296Z,31.06
2023-03-31T03:13:46.472Z,31.11
2023-03-31T03:14:56.483Z,31.15
2023-03-31T03:16:06.543Z,31.19
2023-03-31T03:17:16.116Z,31.20
2023-03-31T03:18:23.223Z,31.24
2023-03-31T03:19:30.426Z,31.25
2023-03-31T03:20:37.471Z,31.28
2023-03-31T03:21:44.155Z,31.30
2023-03-31T03:22:49.621Z,31.32
2023-03-31T03:23:56.391Z,31.34
2023-03-31T03:25:03.047Z,31.36
2023-03-31T03:26:08.517Z,31.38
2023-03-31T03:27:15.188Z,31.40
2023-03-31T03:28:20.708Z,31.43
2023-03-31T03:29:28.701Z,31.46
2023-03-31T03:30:34.156Z,31.49
2023-03-31T03:31:40.962Z,31.52
2023-03-31T03:32:46.457Z,31.53
2023-03-31T03:33:55.119Z,31.52
2023-03-31T03:35:00.496Z,31.54
2023-03-31T03:36:07.546Z,31.58
2023-03-31T03:37:14.611Z,31.61
2023-03-31T03:38:19.894Z,31.67
2023-03-31T03:39:26.717Z,31.73
2023-03-31T03:40:32.278Z,31.76
2023-03-31T03:41:39.073Z,31.77
2023-03-31T03:42:44.559Z,31.79
2023-03-31T03:43:51.222Z,31.81
2023-03-31T03:44:57.470Z,31.84
2023-03-31T03:46:04.377Z,31.87
2023-03-31T03:47:09.897Z,31.89
2023-03-31T03:48:16.623Z,31.91
2023-03-31T03:49:23.789Z,31.92
2023-03-31T03:50:30.613Z,31.94
2023-03-31T03:51:36.080Z,31.95
2023-03-31T03:52:42.847Z,31.96
2023-03-31T03:53:48.359Z,31.98
2023-03-31T03:54:55.080Z,31.99
2023-03-31T03:56:00.829Z,31.99
2023-03-31T03:57:08.288Z,32.00
2023-03-31T03:58:13.957Z,32.01
2023-03-31T03:59:20.650Z,32.02
2023-03-31T04:00:26.248Z,32.03
2023-03-31T04:01:33.146Z,32.06
2023-03-31T04:02:38.683Z,32.07
2023-03-31T04:03:45.423Z,32.08
2023-03-31T04:04:54.383Z,32.10
2023-03-31T04:05:59.754Z,32.10
2023-03-31T04:07:06.577Z,32.11
2023-03-31T04:08:11.965Z,32.12
2023-03-31T04:09:18.959Z,32.16
2023-03-31T04:10:24.410Z,32.17
2023-03-31T04:11:31.351Z,32.20
2023-03-31T04:12:39.059Z,32.21
2023-03-31T04:13:45.710Z,32.25
2023-03-31T04:14:52.352Z,32.28
2023-03-31T04:15:57.764Z,32.31
2023-03-31T04:17:04.857Z,32.35
2023-03-31T04:18:13.931Z,32.36
2023-03-31T04:19:23.359Z,32.39
2023-03-31T04:20:32.148Z,32.44
2023-03-31T04:21:38.753Z,32.48
2023-03-31T04:22:44.186Z,32.51
2023-03-31T04:23:51.110Z,32.53
2023-03-31T04:25:00.068Z,32.55
2023-03-31T04:26:05.688Z,32.55
2023-03-31T04:27:12.538Z,32.57
2023-03-31T04:28:18.066Z,32.56
2023-03-31T04:29:28.326Z,32.58
2023-03-31T04:30:33.810Z,32.60
2023-03-31T04:31:44.379Z,32.61
2023-03-31T04:32:52.180Z,32.62
2023-03-31T04:34:02.823Z,32.63
2023-03-31T04:35:10.134Z,32.65
2023-03-31T04:36:19.307Z,32.69
2023-03-31T04:37:29.688Z,32.72
2023-03-31T04:38:35.501Z,32.74
2023-03-31T04:39:42.251Z,32.76
2023-03-31T04:40:48.766Z,32.80
2023-03-31T04:41:55.479Z,32.83
2023-03-31T04:43:00.897Z,32.86
2023-03-31T04:44:07.693Z,32.89
2023-03-31T04:45:14.718Z,32.92
2023-03-31T04:46:21.673Z,32.93
2023-03-31T04:47:28.496Z,32.95
2023-03-31T04:48:33.877Z,32.98
2023-03-31T04:49:40.610Z,33.01
2023-03-31T04:50:45.989Z,33.03
2023-03-31T04:51:54.421Z,33.05
2023-03-31T04:52:59.750Z,33.07
2023-03-31T04:54:06.511Z,33.09
2023-03-31T04:55:12.725Z,33.09
2023-03-31T04:56:19.406Z,33.11
2023-03-31T04:57:24.900Z,33.12
2023-03-31T04:58:31.774Z,33.12
2023-03-31T04:59:38.498Z,33.13
2023-03-31T05:00:44.054Z,33.16
2023-03-31T05:01:50.859Z,33.17
2023-03-31T05:02:56.335Z,33.19
2023-03-31T05:04:03.242Z,33.20
2023-03-31T05:05:10.367Z,33.22
2023-03-31T05:06:15.824Z,33.25
2023-03-31T05:07:24.379Z,33.27
2023-03-31T05:08:29.727Z,33.29
2023-03-31T05:09:36.480Z,33.30
2023-03-31T05:10:41.864Z,33.34
2023-03-31T05:11:48.602Z,33.37
2023-03-31T05:12:53.994Z,33.40
2023-03-31T05:14:00.748Z,33.43
2023-03-31T05:15:06.709Z,33.46
2023-03-31T05:16:15.980Z,33.50
2023-03-31T05:17:23.778Z,33.53
2023-03-31T05:18:30.546Z,33.55
2023-03-31T05:19:37.353Z,33.58
2023-03-31T05:20:42.824Z,33.60
2023-03-31T05:21:50.517Z,33.62
2023-03-31T05:22:57.599Z,33.61
2023-03-31T05:24:04.663Z,33.60
2023-03-31T05:25:11.358Z,33.59
2023-03-31T05:26:18.248Z,33.61
2023-03-31T05:27:23.646Z,33.63
2023-03-31T05:28:31.345Z,33.66
2023-03-31T05:29:39.225Z,33.69
2023-03-31T05:30:44.610Z,33.72
2023-03-31T05:31:51.680Z,33.77
2023-03-31T05:32:57.499Z,33.80
2023-03-31T05:34:04.270Z,33.83
2023-03-31T05:35:11.662Z,33.83
2023-03-31T05:36:20.063Z,33.86
2023-03-31T05:37:26.625Z,33.86
2023-03-31T05:38:36.151Z,33.86
2023-03-31T05:39:41.550Z,33.87
2023-03-31T05:40:48.260Z,33.88
2023-03-31T05:41:53.781Z,33.88
2023-03-31T05:43:00.554Z,33.90
2023-03-31T05:44:07.225Z,33.90
2023-03-31T05:45:14.154Z,33.92
2023-03-31T05:46:19.986Z,33.94
2023-03-31T05:47:26.635Z,33.96
2023-03-31T05:48:33.342Z,33.97
2023-03-31T05:49:39.518Z,33.99
2023-03-31T05:50:46.191Z,33.99
2023-03-31T05:51:51.992Z,34.01
2023-03-31T05:52:59.352Z,34.03
2023-03-31T05:54:07.851Z,34.04
2023-03-31T05:55:13.613Z,34.06
2023-03-31T05:56:20.316Z,34.10
2023-03-31T05:57:26.974Z,34.10
2023-03-31T05:58:32.396Z,34.11
2023-03-31T05:59:39.895Z,34.13
2023-03-31T06:00:46.527Z,34.15
2023-03-31T06:01:51.998Z,34.17
2023-03-31T06:02:59.269Z,34.19
2023-03-31T06:04:06.174Z,34.23
2023-03-31T06:05:11.958Z,34.27
2023-03-31T06:06:18.629Z,34.30
2023-03-31T06:07:23.952Z,34.32
2023-03-31T06:08:30.562Z,34.34
2023-03-31T06:09:38.924Z,34.37
2023-03-31T06:10:44.466Z,34.38
2023-03-31T06:11:51.110Z,34.40
2023-03-31T06:12:56.406Z,34.43
2023-03-31T06:14:03.053Z,34.45
2023-03-31T06:15:09.224Z,34.48
2023-03-31T06:16:16.650Z,34.48
2023-03-31T06:17:23.350Z,34.51
2023-03-31T06:18:30.483Z,34.54
2023-03-31T06:19:37.132Z,34.55
2023-03-31T06:20:43.780Z,34.58
2023-03-31T06:21:50.544Z,34.62
2023-03-31T06:22:55.850Z,34.65
2023-03-31T06:24:02.509Z,34.66
2023-03-31T06:25:10.401Z,34.68
2023-03-31T06:26:18.676Z,34.73
2023-03-31T06:27:25.367Z,34.76
2023-03-31T06:28:30.680Z,34.77
2023-03-31T06:29:37.292Z,34.79
2023-03-31T06:30:42.921Z,34.82
2023-03-31T06:31:49.597Z,34.84
2023-03-31T06:32:56.326Z,34.85
2023-03-31T06:34:01.669Z,34.88
2023-03-31T06:35:09.001Z,34.90
2023-03-31T06:36:15.740Z,34.92
2023-03-31T06:37:22.383Z,34.95
2023-03-31T06:38:28.705Z,34.99
2023-03-31T06:39:35.338Z,35.02
2023-03-31T06:40:42.728Z,35.06
2023-03-31T06:41:49.300Z,35.09
2023-03-31T06:42:54.567Z,35.13
2023-03-31T06:44:01.216Z,35.16
2023-03-31T06:45:08.364Z,35.19
2023-03-31T06:46:15.047Z,35.21
2023-03-31T06:47:21.648Z,35.24
2023-03-31T06:48:27.456Z,35.27
2023-03-31T06:49:34.125Z,35.31
2023-03-31T06:50:40.909Z,35.34
2023-03-31T06:51:47.490Z,35.38
2023-03-31T06:52:54.572Z,35.42
2023-03-31T06:54:01.214Z,35.46
2023-03-31T06:55:07.012Z,35.50
2023-03-31T06:56:15.353Z,35.54
2023-03-31T06:57:20.668Z,35.59
2023-03-31T06:58:29.774Z,35.62
2023-03-31T06:59:37.934Z,35.65
2023-03-31T07:00:44.635Z,35.68
2023-03-31T07:01:52.140Z,35.68
2023-03-31T07:02:57.776Z,35.69
2023-03-31T07:04:04.469Z,35.71
2023-03-31T07:05:11.834Z,35.72
2023-03-31T07:06:18.744Z,35.73
2023-03-31T07:07:24.044Z,35.76
2023-03-31T07:08:30.683Z,35.80
2023-03-31T07:09:35.989Z,35.82
2023-03-31T07:10:42.589Z,35.86
2023-03-31T07:11:50.935Z,35.89
2023-03-31T07:12:56.186Z,35.93
2023-03-31T07:14:02.821Z,35.99
2023-03-31T07:15:09.295Z,36.05
2023-03-31T07:16:16.839Z,36.10
2023-03-31T07:17:22.813Z,36.16
2023-03-31T07:18:35.010Z,36.20
2023-03-31T07:19:43.759Z,36.27
2023-03-31T07:20:52.723Z,36.31
2023-03-31T07:21:58.413Z,36.36
2023-03-31T07:23:08.309Z,36.40
2023-03-31T07:24:14.990Z,36.45
2023-03-31T07:25:20.622Z,36.51
2023-03-31T07:26:27.629Z,36.54
2023-03-31T07:27:35.919Z,36.55
2023-03-31T07:28:41.265Z,36.56
2023-03-31T07:29:47.898Z,36.58
2023-03-31T07:30:54.475Z,36.60
2023-03-31T07:32:01.106Z,36.63
2023-03-31T07:33:07.778Z,36.63
2023-03-31T07:34:14.550Z,36.67
2023-03-31T07:35:20.491Z,36.71
2023-03-31T07:36:27.200Z,36.73
2023-03-31T07:37:37.990Z,36.72
2023-03-31T07:38:44.731Z,36.78
2023-03-31T07:39:50.062Z,36.86
2023-03-31T07:41:05.991Z,36.90
2023-03-31T07:42:16.000Z,36.99
2023-03-31T07:43:24.324Z,37.06
2023-03-31T07:44:30.600Z,37.15
2023-03-31T07:45:37.622Z,37.20
2023-03-31T07:46:44.478Z,37.21
2023-03-31T07:47:50.287Z,37.24
2023-03-31T07:48:57.735Z,37.32
2023-03-31T07:50:03.123Z,37.38
2023-03-31T07:51:09.831Z,37.46
2023-03-31T07:52:16.405Z,37.52
2023-03-31T07:53:23.028Z,37.57
2023-03-31T07:54:29.728Z,37.63
2023-03-31T07:55:36.404Z,37.67
2023-03-31T07:56:41.744Z,37.69
2023-03-31T07:57:49.110Z,37.66
2023-03-31T07:58:58.034Z,37.68
2023-03-31T08:00:03.839Z,37.72
2023-03-31T08:01:10.547Z,37.78
2023-03-31T08:02:17.030Z,37.81
2023-03-31T08:03:23.733Z,37.79
2023-03-31T08:04:30.481Z,37.80
2023-03-31T08:05:37.255Z,37.83
2023-03-31T08:06:44.153Z,37.88
2023-03-31T08:07:52.155Z,37.92
2023-03-31T08:08:59.147Z,38.00
2023-03-31T08:10:04.960Z,38.06
2023-03-31T08:11:11.585Z,38.04
2023-03-31T08:12:17.543Z,38.06
2023-03-31T08:13:24.124Z,38.12
2023-03-31T08:14:40.785Z,38.20
2023-03-31T08:15:48.117Z,38.17
2023-03-31T08:16:54.868Z,38.10
2023-03-31T08:18:01.643Z,38.05
2023-03-31T08:19:08.272Z,38.08
2023-03-31T08:20:14.512Z,38.13
2023-03-31T08:21:23.773Z,38.10
2023-03-31T08:22:31.093Z,38.14
2023-03-31T08:23:37.782Z,38.14
2023-03-31T08:24:44.394Z,38.11
2023-03-31T08:25:51.052Z,38.14
2023-03-31T08:26:57.641Z,38.15
2023-03-31T08:28:04.274Z,38.10
2023-03-31T08:29:10.927Z,38.11
2023-03-31T08:30:19.809Z,38.18
2023-03-31T08:31:27.542Z,38.20
2023-03-31T08:32:33.839Z,38.25
2023-03-31T08:33:40.660Z,38.32
2023-03-31T08:34:47.846Z,38.35
2023-03-31T08:35:54.509Z,38.39
2023-03-31T08:37:01.139Z,38.42
2023-03-31T08:38:08.131Z,38.46
2023-03-31T08:39:13.413Z,38.48
2023-03-31T08:40:24.410Z,38.53
2023-03-31T08:41:48.199Z,38.52
2023-03-31T08:42:57.064Z,38.51
2023-03-31T08:44:04.844Z,38.48
2023-03-31T08:45:18.386Z,38.46
2023-03-31T08:46:27.397Z,38.41
2023-03-31T08:47:35.412Z,38.41
2023-03-31T08:48:46.772Z,38.45
2023-03-31T08:49:55.724Z,38.55
2023-03-31T08:51:05.383Z,38.65
2023-03-31T08:52:14.029Z,38.69
2023-03-31T08:53:29.752Z,38.59
2023-03-31T08:54:38.348Z,38.56
2023-03-31T08:55:49.335Z,38.56
2023-03-31T08:56:56.565Z,38.53
2023-03-31T08:58:07.223Z,38.49
2023-03-31T08:59:24.313Z,38.45
2023-03-31T09:00:33.965Z,38.38
2023-03-31T09:01:55.346Z,38.28
2023-03-31T09:03:07.445Z,38.29
2023-03-31T09:04:27.386Z,38.35
2023-03-31T09:06:00.047Z,38.39
2023-03-31T09:07:21.695Z,38.42
2023-03-31T09:08:36.723Z,38.35
2023-03-31T09:09:49.777Z,38.34
2023-03-31T09:11:00.151Z,38.26
2023-03-31T09:12:10.479Z,38.13
2023-03-31T09:13:30.874Z,38.11
2023-03-31T09:14:39.839Z,38.12
2023-03-31T09:15:50.601Z,38.13
2023-03-31T09:17:06.558Z,38.12
2023-03-31T09:18:21.650Z,38.09
2023-03-31T09:19:37.356Z,38.07
2023-03-31T09:20:44.923Z,38.04
2023-03-31T09:21:54.784Z,38.04
2023-03-31T09:23:18.411Z,38.02
2023-03-31T09:24:26.900Z,38.00
2023-03-31T09:25:42.976Z,38.00
2023-03-31T09:26:51.598Z,37.97
2023-03-31T09:28:00.577Z,37.91
2023-03-31T09:29:10.370Z,37.86
2023-03-31T09:30:19.756Z,37.80
2023-03-31T09:31:25.641Z,37.73
2023-03-31T09:32:36.069Z,37.64
2023-03-31T09:33:45.564Z,37.52
2023-03-31T09:34:54.990Z,37.46
2023-03-31T09:36:01.973Z,37.46
2023-03-31T09:37:08.807Z,37.40
2023-03-31T09:38:16.477Z,37.31
2023-03-31T09:39:21.884Z,37.29
2023-03-31T09:40:29.637Z,37.24
2023-03-31T09:41:36.326Z,37.19
2023-03-31T09:42:41.905Z,37.19
2023-03-31T09:43:49.306Z,37.16
2023-03-31T09:44:56.648Z,37.09
2023-03-31T09:46:09.758Z,37.01
2023-03-31T09:47:23.109Z,36.99
2023-03-31T09:48:33.310Z,36.98
2023-03-31T09:49:40.421Z,37.00
2023-03-31T09:50:50.448Z,37.05
2023-03-31T09:52:05.623Z,37.01
2023-03-31T09:53:18.591Z,37.00
2023-03-31T09:54:30.497Z,36.96
2023-03-31T09:55:45.669Z,36.98
2023-03-31T09:56:54.917Z,36.94
2023-03-31T09:58:04.814Z,36.87
2023-03-31T09:59:19.118Z,36.82
2023-03-31T10:00:27.475Z,36.83
2023-03-31T10:01:33.249Z,36.85
2023-03-31T10:02:42.149Z,36.87
2023-03-31T10:03:59.881Z,36.83
2023-03-31T10:05:08.292Z,36.80
2023-03-31T10:06:15.314Z,36.73
2023-03-31T10:07:23.980Z,36.66
2023-03-31T10:08:34.975Z,36.57
2023-03-31T10:09:41.535Z,36.57
2023-03-31T10:10:50.938Z,36.51
2023-03-31T10:12:00.008Z,36.42
2023-03-31T10:13:10.285Z,36.30
2023-03-31T10:14:18.360Z,36.24
2023-03-31T10:15:26.145Z,36.21
2023-03-31T10:16:34.171Z,36.18
2023-03-31T10:17:55.326Z,36.10
2023-03-31T10:19:16.688Z,36.03
2023-03-31T10:20:30.409Z,35.99
2023-03-31T10:21:40.432Z,35.95
2023-03-31T10:22:47.557Z,35.93
2023-03-31T10:23:54.682Z,35.90
2023-03-31T10:25:14.022Z,35.75
2023-03-31T10:26:23.467Z,35.70
2023-03-31T10:27:31.143Z,35.67
2023-03-31T10:28:37.817Z,35.59
2023-03-31T10:29:44.579Z,35.52
2023-03-31T10:30:53.892Z,35.44
2023-03-31T10:31:59.192Z,35.33
2023-03-31T10:33:21.963Z,35.28
2023-03-31T10:34:31.310Z,35.23
2023-03-31T10:35:37.999Z,35.12
2023-03-31T10:36:50.665Z,35.02
2023-03-31T10:37:58.377Z,34.89
2023-03-31T10:39:09.198Z,34.84
2023-03-31T10:40:20.011Z,34.75
2023-03-31T10:41:28.759Z,34.63
2023-03-31T10:42:35.455Z,34.57
2023-03-31T10:43:42.849Z,34.50
2023-03-31T10:44:49.817Z,34.40
2023-03-31T10:45:58.107Z,34.29
2023-03-31T10:47:09.483Z,34.18
2023-03-31T10:48:22.737Z,34.04
2023-03-31T10:49:31.408Z,34.01
2023-03-31T10:50:39.544Z,33.94
2023-03-31T10:51:53.511Z,33.82
2023-03-31T10:53:05.437Z,33.72
2023-03-31T10:54:13.311Z,33.67
2023-03-31T10:55:27.821Z,33.54
2023-03-31T10:56:42.158Z,33.43
2023-03-31T10:57:52.723Z,33.37
2023-03-31T10:59:31.228Z,33.28
2023-03-31T11:00:41.103Z,33.23
2023-03-31T11:02:00.654Z,33.19
2023-03-31T11:03:35.475Z,33.14
2023-03-31T11:04:59.870Z,33.10
2023-03-31T11:06:07.734Z,33.08
2023-03-31T11:07:21.499Z,33.02
2023-03-31T11:08:38.791Z,32.95
2023-03-31T11:09:53.663Z,32.89
2023-03-31T11:11:12.164Z,32.84
2023-03-31T11:12:24.607Z,32.77
2023-03-31T11:13:35.174Z,32.74
2023-03-31T11:14:50.731Z,32.66
2023-03-31T11:16:01.537Z,32.61
2023-03-31T11:17:15.022Z,32.57
2023-03-31T11:18:39.613Z,32.51
2023-03-31T11:19:51.960Z,32.47
2023-03-31T11:21:07.569Z,32.45
2023-03-31T11:22:17.667Z,32.40
2023-03-31T11:23:28.385Z,32.39
2023-03-31T11:25:07.699Z,32.32
2023-03-31T11:26:16.975Z,32.30
2023-03-31T11:27:35.758Z,32.27
2023-03-31T11:29:02.989Z,32.22
2023-03-31T11:30:13.252Z,32.17
2023-03-31T11:31:31.808Z,32.15
2023-03-31T11:32:51.211Z,32.13
2023-03-31T11:34:18.722Z,32.08
2023-03-31T11:35:52.509Z,32.03
2023-03-31T11:37:33.277Z,31.99
2023-03-31T11:38:56.160Z,31.97
2023-03-31T11:40:17.604Z,31.93
2023-03-31T11:41:29.608Z,31.89
2023-03-31T11:42:56.483Z,31.85
2023-03-31T11:44:05.478Z,31.83
2023-03-31T11:45:19.357Z,31.80
2023-03-31T11:46:28.596Z,31.73
2023-03-31T11:47:38.822Z,31.72
2023-03-31T11:48:47.614Z,31.66
2023-03-31T11:49:58.384Z,31.63
2023-03-31T11:51:07.019Z,31.58
2023-03-31T11:52:20.515Z,31.52
2023-03-31T11:53:31.207Z,31.52
2023-03-31T11:54:39.121Z,31.48
2023-03-31T11:55:45.363Z,31.45
2023-03-31T11:56:52.042Z,31.45
2023-03-31T11:58:03.585Z,31.42
2023-03-31T11:59:11.302Z,31.37
2023-03-31T12:00:21.837Z,31.36
2023-03-31T12:01:31.638Z,31.35
2023-03-31T12:02:44.530Z,31.32
2023-03-31T12:03:58.137Z,31.31
2023-03-31T12:05:05.705Z,31.31
2023-03-31T12:06:18.676Z,31.29
2023-03-31T12:07:32.818Z,31.25
2023-03-31T12:08:42.505Z,31.23
2023-03-31T12:10:04.555Z,31.18
2023-03-31T12:11:14.826Z,31.16
2023-03-31T12:12:23.347Z,31.09
2023-03-31T12:13:48.985Z,31.05
2023-03-31T12:14:58.301Z,31.02
2023-03-31T12:16:09.026Z,30.95
2023-03-31T12:17:17.665Z,30.93
2023-03-31T12:18:26.738Z,30.91
2023-03-31T12:19:38.413Z,30.91
2023-03-31T12:20:46.638Z,30.92
2023-03-31T12:21:55.485Z,30.91
2023-03-31T12:23:06.203Z,30.87
2023-03-31T12:24:16.509Z,30.87
2023-03-31T12:25:24.635Z,30.84
2023-03-31T12:26:42.193Z,30.83
2023-03-31T12:27:51.033Z,30.82
2023-03-31T12:29:01.353Z,30.81
2023-03-31T12:30:11.024Z,30.80
2023-03-31T12:31:22.445Z,30.76
2023-03-31T12:32:31.128Z,30.71
2023-03-31T12:33:39.179Z,30.71
2023-03-31T12:34:50.589Z,30.69
2023-03-31T12:36:19.445Z,30.66
2023-03-31T12:38:03.918Z,30.65
2023-03-31T12:39:22.843Z,30.64
2023-03-31T12:40:38.096Z,30.63
2023-03-31T12:41:50.036Z,30.61
2023-03-31T12:43:28.318Z,30.63
2023-03-31T12:44:41.417Z,30.61
2023-03-31T12:45:51.405Z,30.56
2023-03-31T12:47:19.069Z,30.55
2023-03-31T12:48:41.719Z,30.52
2023-03-31T12:50:00.493Z,30.50
2023-03-31T12:51:14.825Z,30.50
2023-03-31T12:52:24.333Z,30.49
2023-03-31T12:53:36.319Z,30.43
2023-03-31T12:55:14.280Z,30.45
2023-03-31T12:56:22.709Z,30.43
2023-03-31T12:57:28.490Z,30.43
2023-03-31T12:58:50.844Z,30.43
2023-03-31T13:00:25.850Z,30.37
2023-03-31T13:01:32.720Z,30.35
2023-03-31T13:02:38.296Z,30.32
2023-03-31T13:03:53.676Z,30.31
2023-03-31T13:05:00.300Z,30.29
2023-03-31T13:06:06.431Z,30.31
2023-03-31T13:07:27.738Z,30.30
2023-03-31T13:09:02.431Z,30.29
2023-03-31T13:10:31.340Z,30.30
2023-03-31T13:11:46.122Z,30.29
2023-03-31T13:13:04.281Z,30.27
2023-03-31T13:14:16.056Z,30.29
2023-03-31T13:15:33.035Z,30.28
2023-03-31T13:16:38.905Z,30.29
2023-03-31T13:17:46.324Z,30.28
2023-03-31T13:18:55.950Z,30.26
2023-03-31T13:20:21.214Z,30.26
2023-03-31T13:21:26.974Z,30.27
2023-03-31T13:22:38.276Z,30.24
2023-03-31T13:23:48.118Z,30.23
2023-03-31T13:24:54.874Z,30.21
2023-03-31T13:26:02.097Z,30.21
2023-03-31T13:27:34.185Z,30.17
2023-03-31T13:28:45.426Z,30.17
2023-03-31T13:29:52.115Z,30.19
2023-03-31T13:31:00.073Z,30.17
2023-03-31T13:32:23.962Z,30.18
2023-03-31T13:33:47.619Z,30.15
2023-03-31T13:35:11.578Z,30.14
2023-03-31T13:36:56.452Z,30.13
2023-03-31T13:38:12.613Z,30.12
2023-03-31T13:39:38.754Z,30.11
2023-03-31T13:41:04.148Z,30.11
2023-03-31T13:42:24.753Z,30.13
2023-03-31T13:44:00.853Z,30.09
2023-03-31T13:45:17.773Z,30.11
2023-03-31T13:46:54.791Z,30.11
2023-03-31T13:48:10.802Z,30.11
2023-03-31T13:49:43.908Z,30.11
2023-03-31T13:50:59.295Z,30.11
2023-03-31T13:52:07.050Z,30.10
2023-03-31T13:53:25.337Z,30.10
2023-03-31T13:54:58.088Z,30.10
2023-03-31T13:56:41.776Z,30.10
2023-03-31T13:58:34.152Z,30.11
2023-03-31T14:00:19.693Z,30.09
2023-03-31T14:01:52.862Z,30.10
2023-03-31T14:03:11.052Z,30.10
2023-03-31T14:04:42.463Z,30.11
2023-03-31T14:05:52.934Z,30.13
2023-03-31T14:07:01.992Z,30.15
2023-03-31T14:08:10.057Z,30.17
2023-03-31T14:09:20.568Z,30.19
2023-03-31T14:10:32.888Z,30.21
2023-03-31T14:11:39.716Z,30.22
2023-03-31T14:12:45.221Z,30.22
2023-03-31T14:14:06.893Z,30.24
2023-03-31T14:15:23.566Z,30.23
2023-03-31T14:16:30.907Z,30.22
2023-03-31T14:17:41.406Z,30.20
2023-03-31T14:18:50.982Z,30.21
2023-03-31T14:20:09.810Z,30.22
2023-03-31T14:21:23.479Z,30.22
2023-03-31T14:22:45.279Z,30.24
2023-03-31T14:24:01.102Z,30.24
2023-03-31T14:25:15.393Z,30.23
2023-03-31T14:26:29.149Z,30.24
2023-03-31T14:27:50.381Z,30.22
2023-03-31T14:29:15.268Z,30.23
2023-03-31T14:30:30.889Z,30.24
2023-03-31T14:31:38.997Z,30.26
2023-03-31T14:32:52.713Z,30.26
2023-03-31T14:34:32.343Z,30.26
2023-03-31T14:35:44.409Z,30.27
2023-03-31T14:36:59.164Z,30.28
2023-03-31T14:38:08.065Z,30.28
2023-03-31T14:39:16.146Z,30.28
2023-03-31T14:40:21.832Z,30.28
2023-03-31T14:41:32.708Z,30.27
2023-03-31T14:42:42.776Z,30.27
2023-03-31T14:43:52.303Z,30.27
2023-03-31T14:45:01.552Z,30.23
2023-03-31T14:46:09.970Z,30.23
2023-03-31T14:47:18.929Z,30.23
2023-03-31T14:48:27.630Z,30.20
2023-03-31T14:49:37.734Z,30.20
2023-03-31T14:50:47.862Z,30.17
2023-03-31T14:51:56.689Z,30.18
2023-03-31T14:53:03.881Z,30.19
2023-03-31T14:54:16.882Z,30.17
2023-03-31T14:55:31.755Z,30.18
2023-03-31T14:56:46.336Z,30.14
2023-03-31T14:57:54.173Z,30.12
2023-03-31T14:59:00.855Z,30.09
2023-03-31T15:00:09.183Z,30.04
2023-03-31T15:01:19.607Z,30.00
2023-03-31T15:02:33.972Z,29.97
2023-03-31T15:03:45.856Z,29.95
2023-03-31T15:04:53.265Z,29.94
2023-03-31T15:06:01.885Z,29.94
2023-03-31T15:07:07.709Z,29.92
2023-03-31T15:08:18.091Z,29.91
2023-03-31T15:09:27.421Z,29.88
2023-03-31T15:13:00.104Z,29.81
2023-03-31T15:14:05.995Z,29.79
2023-03-31T15:15:15.577Z,29.76
2023-03-31T15:16:34.273Z,29.76
2023-03-31T15:17:43.130Z,29.75
2023-03-31T15:18:50.474Z,29.72
2023-03-31T15:19:58.993Z,29.71
2023-03-31T15:21:04.536Z,29.73
2023-03-31T15:22:15.705Z,29.71
2023-03-31T15:23:28.937Z,29.70
2023-03-31T15:24:34.719Z,29.69
2023-03-31T15:25:44.018Z,29.69